sensor_id;sensor_type;location;lat;lon;timestamp;P1;durP1;ratioP1;P2;durP2;ratioP2
23378;SDS011;11862;46.070;13.222;2022-10-16T00:00:43;52.17;;;40.45;;
23378;SDS011;11862;46.070;13.222;2022-10-16T00:03:09;52.78;;;41.15;;
23378;SDS011;11862;46.070;13.222;2022-10-16T00:05:40;49.17;;;40.22;;
23378;SDS011;11862;46.070;13.222;2022-10-16T00:08:08;54.13;;;41.20;;
23378;SDS011;11862;46.070;13.222;2022-10-16T00:10:34;56.88;;;40.50;;
23378;SDS011;11862;46.070;13.222;2022-10-16T00:13:01;53.45;;;40.42;;
23378;SDS011;11862;46.070;13.222;2022-10-16T00:15:26;52.03;;;41.13;;
23378;SDS011;11862;46.070;13.222;2022-10-16T00:17:52;55.88;;;43.33;;
23378;SDS011;11862;46.070;13.222;2022-10-16T00:20:18;56.20;;;41.35;;
23378;SDS011;11862;46.070;13.222;2022-10-16T00:22:44;50.20;;;40.88;;
23378;SDS011;11862;46.070;13.222;2022-10-16T00:25:10;51.92;;;41.63;;
23378;SDS011;11862;46.070;13.222;2022-10-16T00:27:36;51.67;;;42.75;;
23378;SDS011;11862;46.070;13.222;2022-10-16T00:30:02;53.05;;;42.13;;
23378;SDS011;11862;46.070;13.222;2022-10-16T00:32:28;49.53;;;41.00;;
23378;SDS011;11862;46.070;13.222;2022-10-16T00:34:55;55.08;;;43.58;;
23378;SDS011;11862;46.070;13.222;2022-10-16T00:37:21;51.35;;;41.47;;
23378;SDS011;11862;46.070;13.222;2022-10-16T00:39:47;50.08;;;41.50;;
23378;SDS011;11862;46.070;13.222;2022-10-16T00:42:14;49.63;;;40.60;;
23378;SDS011;11862;46.070;13.222;2022-10-16T00:44:47;52.80;;;40.75;;
23378;SDS011;11862;46.070;13.222;2022-10-16T00:47:35;47.27;;;39.00;;
23378;SDS011;11862;46.070;13.222;2022-10-16T00:52:41;49.55;;;40.92;;
23378;SDS011;11862;46.070;13.222;2022-10-16T00:55:11;52.53;;;40.80;;
23378;SDS011;11862;46.070;13.222;2022-10-16T00:57:38;51.75;;;41.00;;
23378;SDS011;11862;46.070;13.222;2022-10-16T01:00:06;46.55;;;39.58;;
23378;SDS011;11862;46.070;13.222;2022-10-16T01:02:33;52.25;;;42.08;;
23378;SDS011;11862;46.070;13.222;2022-10-16T01:04:59;51.25;;;41.42;;
23378;SDS011;11862;46.070;13.222;2022-10-16T01:10:14;51.30;;;40.15;;
23378;SDS011;11862;46.070;13.222;2022-10-16T01:13:05;53.75;;;39.33;;
23378;SDS011;11862;46.070;13.222;2022-10-16T01:20:37;51.50;;;41.63;;
23378;SDS011;11862;46.070;13.222;2022-10-16T01:29:26;52.28;;;40.92;;
23378;SDS011;11862;46.070;13.222;2022-10-16T01:32:07;50.78;;;41.53;;
23378;SDS011;11862;46.070;13.222;2022-10-16T01:37:47;51.47;;;42.30;;
23378;SDS011;11862;46.070;13.222;2022-10-16T01:40:36;53.90;;;40.40;;
23378;SDS011;11862;46.070;13.222;2022-10-16T01:43:09;51.08;;;41.92;;
23378;SDS011;11862;46.070;13.222;2022-10-16T01:45:40;54.10;;;40.90;;
23378;SDS011;11862;46.070;13.222;2022-10-16T01:48:09;52.55;;;41.40;;
23378;SDS011;11862;46.070;13.222;2022-10-16T01:50:38;50.05;;;40.03;;
23378;SDS011;11862;46.070;13.222;2022-10-16T01:53:07;51.88;;;42.50;;
23378;SDS011;11862;46.070;13.222;2022-10-16T01:55:39;52.88;;;42.05;;
23378;SDS011;11862;46.070;13.222;2022-10-16T01:58:13;52.80;;;40.53;;
23378;SDS011;11862;46.070;13.222;2022-10-16T02:00:40;49.00;;;39.97;;
23378;SDS011;11862;46.070;13.222;2022-10-16T02:03:11;50.42;;;40.85;;
23378;SDS011;11862;46.070;13.222;2022-10-16T02:05:45;56.00;;;41.00;;
23378;SDS011;11862;46.070;13.222;2022-10-16T02:08:14;48.88;;;39.83;;
23378;SDS011;11862;46.070;13.222;2022-10-16T02:10:40;52.83;;;42.58;;
23378;SDS011;11862;46.070;13.222;2022-10-16T02:15:42;50.85;;;42.17;;
23378;SDS011;11862;46.070;13.222;2022-10-16T02:18:08;52.47;;;41.90;;
23378;SDS011;11862;46.070;13.222;2022-10-16T02:20:52;53.30;;;40.95;;
23378;SDS011;11862;46.070;13.222;2022-10-16T02:29:26;50.10;;;41.00;;
23378;SDS011;11862;46.070;13.222;2022-10-16T02:31:56;50.85;;;42.05;;
23378;SDS011;11862;46.070;13.222;2022-10-16T02:34:26;49.53;;;40.10;;
23378;SDS011;11862;46.070;13.222;2022-10-16T02:36:55;53.58;;;41.45;;
23378;SDS011;11862;46.070;13.222;2022-10-16T02:39:23;56.53;;;41.60;;
23378;SDS011;11862;46.070;13.222;2022-10-16T02:41:49;57.72;;;41.88;;
23378;SDS011;11862;46.070;13.222;2022-10-16T02:44:15;53.55;;;42.25;;
23378;SDS011;11862;46.070;13.222;2022-10-16T02:46:41;51.25;;;41.65;;
23378;SDS011;11862;46.070;13.222;2022-10-16T02:49:07;54.90;;;41.63;;
23378;SDS011;11862;46.070;13.222;2022-10-16T02:51:33;54.05;;;42.25;;
23378;SDS011;11862;46.070;13.222;2022-10-16T02:53:59;53.90;;;41.25;;
23378;SDS011;11862;46.070;13.222;2022-10-16T02:56:25;52.90;;;40.97;;
23378;SDS011;11862;46.070;13.222;2022-10-16T02:58:54;49.85;;;41.15;;
23378;SDS011;11862;46.070;13.222;2022-10-16T03:01:20;50.83;;;41.35;;
23378;SDS011;11862;46.070;13.222;2022-10-16T03:03:46;51.97;;;41.47;;
23378;SDS011;11862;46.070;13.222;2022-10-16T03:06:12;53.65;;;41.70;;
23378;SDS011;11862;46.070;13.222;2022-10-16T03:08:38;52.70;;;40.83;;
23378;SDS011;11862;46.070;13.222;2022-10-16T03:11:04;53.58;;;43.75;;
23378;SDS011;11862;46.070;13.222;2022-10-16T03:13:30;57.72;;;42.88;;
23378;SDS011;11862;46.070;13.222;2022-10-16T03:15:56;53.58;;;41.83;;
23378;SDS011;11862;46.070;13.222;2022-10-16T03:18:22;52.97;;;42.42;;
23378;SDS011;11862;46.070;13.222;2022-10-16T03:20:48;56.10;;;42.13;;
23378;SDS011;11862;46.070;13.222;2022-10-16T03:23:14;52.83;;;41.92;;
23378;SDS011;11862;46.070;13.222;2022-10-16T03:25:43;53.08;;;41.00;;
23378;SDS011;11862;46.070;13.222;2022-10-16T03:28:09;53.40;;;42.72;;
23378;SDS011;11862;46.070;13.222;2022-10-16T03:30:35;53.60;;;41.30;;
23378;SDS011;11862;46.070;13.222;2022-10-16T03:33:01;54.13;;;43.35;;
23378;SDS011;11862;46.070;13.222;2022-10-16T03:35:27;59.55;;;42.90;;
23378;SDS011;11862;46.070;13.222;2022-10-16T03:37:57;51.30;;;41.90;;
23378;SDS011;11862;46.070;13.222;2022-10-16T03:40:23;54.55;;;42.85;;
23378;SDS011;11862;46.070;13.222;2022-10-16T03:42:49;52.15;;;42.13;;
23378;SDS011;11862;46.070;13.222;2022-10-16T03:45:15;50.17;;;40.50;;
23378;SDS011;11862;46.070;13.222;2022-10-16T03:47:41;56.53;;;42.20;;
23378;SDS011;11862;46.070;13.222;2022-10-16T03:50:07;57.25;;;43.55;;
23378;SDS011;11862;46.070;13.222;2022-10-16T03:52:34;57.00;;;44.15;;
23378;SDS011;11862;46.070;13.222;2022-10-16T03:54:59;53.80;;;42.75;;
23378;SDS011;11862;46.070;13.222;2022-10-16T03:57:25;59.67;;;42.35;;
23378;SDS011;11862;46.070;13.222;2022-10-16T03:59:51;54.97;;;40.90;;
23378;SDS011;11862;46.070;13.222;2022-10-16T04:02:17;55.53;;;42.90;;
23378;SDS011;11862;46.070;13.222;2022-10-16T04:04:43;55.42;;;42.83;;
23378;SDS011;11862;46.070;13.222;2022-10-16T04:07:12;56.60;;;42.42;;
23378;SDS011;11862;46.070;13.222;2022-10-16T04:09:38;62.45;;;43.65;;
23378;SDS011;11862;46.070;13.222;2022-10-16T04:12:04;57.28;;;43.45;;
23378;SDS011;11862;46.070;13.222;2022-10-16T04:14:30;62.83;;;42.55;;
23378;SDS011;11862;46.070;13.222;2022-10-16T04:16:56;56.53;;;41.22;;
23378;SDS011;11862;46.070;13.222;2022-10-16T04:19:21;59.10;;;43.97;;
23378;SDS011;11862;46.070;13.222;2022-10-16T04:21:48;54.80;;;41.75;;
23378;SDS011;11862;46.070;13.222;2022-10-16T04:24:20;52.72;;;41.25;;
23378;SDS011;11862;46.070;13.222;2022-10-16T04:26:46;50.78;;;40.88;;
23378;SDS011;11862;46.070;13.222;2022-10-16T04:29:12;50.97;;;40.65;;
23378;SDS011;11862;46.070;13.222;2022-10-16T04:31:38;53.38;;;40.47;;
23378;SDS011;11862;46.070;13.222;2022-10-16T04:34:04;55.63;;;40.42;;
23378;SDS011;11862;46.070;13.222;2022-10-16T04:36:30;52.53;;;41.20;;
23378;SDS011;11862;46.070;13.222;2022-10-16T04:38:56;50.53;;;39.90;;
23378;SDS011;11862;46.070;13.222;2022-10-16T04:41:22;50.40;;;40.30;;
23378;SDS011;11862;46.070;13.222;2022-10-16T04:43:47;48.28;;;38.00;;
23378;SDS011;11862;46.070;13.222;2022-10-16T04:46:13;50.72;;;40.35;;
23378;SDS011;11862;46.070;13.222;2022-10-16T04:48:39;49.55;;;39.05;;
23378;SDS011;11862;46.070;13.222;2022-10-16T04:51:05;51.53;;;40.20;;
23378;SDS011;11862;46.070;13.222;2022-10-16T04:53:31;49.65;;;39.53;;
23378;SDS011;11862;46.070;13.222;2022-10-16T04:55:58;51.17;;;38.17;;
23378;SDS011;11862;46.070;13.222;2022-10-16T04:58:24;50.97;;;38.85;;
23378;SDS011;11862;46.070;13.222;2022-10-16T05:00:50;49.70;;;39.10;;
23378;SDS011;11862;46.070;13.222;2022-10-16T05:03:16;48.95;;;37.65;;
23378;SDS011;11862;46.070;13.222;2022-10-16T05:05:45;50.08;;;38.55;;
23378;SDS011;11862;46.070;13.222;2022-10-16T05:08:12;49.08;;;38.03;;
23378;SDS011;11862;46.070;13.222;2022-10-16T05:10:43;55.63;;;40.80;;
23378;SDS011;11862;46.070;13.222;2022-10-16T05:13:12;49.55;;;38.50;;
23378;SDS011;11862;46.070;13.222;2022-10-16T05:15:38;50.63;;;39.55;;
23378;SDS011;11862;46.070;13.222;2022-10-16T05:18:04;51.55;;;41.40;;
23378;SDS011;11862;46.070;13.222;2022-10-16T05:20:30;51.30;;;39.63;;
23378;SDS011;11862;46.070;13.222;2022-10-16T05:22:59;47.22;;;37.85;;
23378;SDS011;11862;46.070;13.222;2022-10-16T05:25:25;49.08;;;39.63;;
23378;SDS011;11862;46.070;13.222;2022-10-16T05:27:51;48.88;;;39.05;;
23378;SDS011;11862;46.070;13.222;2022-10-16T05:30:17;47.20;;;39.67;;
23378;SDS011;11862;46.070;13.222;2022-10-16T05:32:50;51.65;;;39.40;;
23378;SDS011;11862;46.070;13.222;2022-10-16T05:35:16;49.40;;;39.58;;
23378;SDS011;11862;46.070;13.222;2022-10-16T05:37:43;51.22;;;39.97;;
23378;SDS011;11862;46.070;13.222;2022-10-16T05:40:09;48.53;;;39.42;;
23378;SDS011;11862;46.070;13.222;2022-10-16T05:42:36;49.90;;;38.20;;
23378;SDS011;11862;46.070;13.222;2022-10-16T05:45:03;48.95;;;39.13;;
23378;SDS011;11862;46.070;13.222;2022-10-16T05:47:30;50.15;;;39.42;;
23378;SDS011;11862;46.070;13.222;2022-10-16T05:49:56;51.25;;;38.63;;
23378;SDS011;11862;46.070;13.222;2022-10-16T05:52:26;47.60;;;38.38;;
23378;SDS011;11862;46.070;13.222;2022-10-16T05:54:52;48.03;;;38.60;;
23378;SDS011;11862;46.070;13.222;2022-10-16T05:57:18;44.90;;;38.45;;
23378;SDS011;11862;46.070;13.222;2022-10-16T05:59:44;47.10;;;37.47;;
23378;SDS011;11862;46.070;13.222;2022-10-16T06:02:14;46.20;;;37.78;;
23378;SDS011;11862;46.070;13.222;2022-10-16T06:04:40;47.85;;;37.33;;
23378;SDS011;11862;46.070;13.222;2022-10-16T06:07:08;46.47;;;37.25;;
23378;SDS011;11862;46.070;13.222;2022-10-16T06:09:34;43.38;;;36.28;;
23378;SDS011;11862;46.070;13.222;2022-10-16T06:12:00;50.53;;;38.28;;
23378;SDS011;11862;46.070;13.222;2022-10-16T06:14:26;47.38;;;37.35;;
23378;SDS011;11862;46.070;13.222;2022-10-16T06:16:52;51.00;;;37.00;;
23378;SDS011;11862;46.070;13.222;2022-10-16T06:19:18;46.25;;;37.85;;
23378;SDS011;11862;46.070;13.222;2022-10-16T06:21:44;48.50;;;36.65;;
23378;SDS011;11862;46.070;13.222;2022-10-16T06:24:10;43.65;;;35.65;;
23378;SDS011;11862;46.070;13.222;2022-10-16T06:26:36;46.05;;;36.05;;
23378;SDS011;11862;46.070;13.222;2022-10-16T06:29:03;48.20;;;37.65;;
23378;SDS011;11862;46.070;13.222;2022-10-16T06:31:29;47.15;;;38.10;;
23378;SDS011;11862;46.070;13.222;2022-10-16T06:33:58;46.63;;;37.08;;
23378;SDS011;11862;46.070;13.222;2022-10-16T06:36:25;44.42;;;37.40;;
23378;SDS011;11862;46.070;13.222;2022-10-16T06:38:51;49.20;;;38.60;;
23378;SDS011;11862;46.070;13.222;2022-10-16T06:41:18;46.90;;;38.22;;
23378;SDS011;11862;46.070;13.222;2022-10-16T06:43:48;46.47;;;37.90;;
23378;SDS011;11862;46.070;13.222;2022-10-16T06:46:15;52.67;;;39.70;;
23378;SDS011;11862;46.070;13.222;2022-10-16T06:48:42;47.03;;;37.42;;
23378;SDS011;11862;46.070;13.222;2022-10-16T06:51:13;46.60;;;38.30;;
23378;SDS011;11862;46.070;13.222;2022-10-16T06:53:43;47.65;;;37.55;;
23378;SDS011;11862;46.070;13.222;2022-10-16T06:56:12;47.95;;;39.28;;
23378;SDS011;11862;46.070;13.222;2022-10-16T06:58:40;45.05;;;37.78;;
23378;SDS011;11862;46.070;13.222;2022-10-16T07:01:07;49.83;;;37.50;;
23378;SDS011;11862;46.070;13.222;2022-10-16T07:03:35;46.28;;;37.33;;
23378;SDS011;11862;46.070;13.222;2022-10-16T07:06:03;47.72;;;36.95;;
23378;SDS011;11862;46.070;13.222;2022-10-16T07:08:34;47.42;;;35.95;;
23378;SDS011;11862;46.070;13.222;2022-10-16T07:11:02;40.95;;;35.00;;
23378;SDS011;11862;46.070;13.222;2022-10-16T07:13:30;42.10;;;36.13;;
23378;SDS011;11862;46.070;13.222;2022-10-16T07:16:03;42.63;;;35.20;;
23378;SDS011;11862;46.070;13.222;2022-10-16T07:18:30;40.00;;;34.45;;
23378;SDS011;11862;46.070;13.222;2022-10-16T07:21:07;40.60;;;34.20;;
23378;SDS011;11862;46.070;13.222;2022-10-16T07:23:38;37.13;;;33.03;;
23378;SDS011;11862;46.070;13.222;2022-10-16T07:26:07;41.13;;;34.55;;
23378;SDS011;11862;46.070;13.222;2022-10-16T07:28:34;40.67;;;34.03;;
23378;SDS011;11862;46.070;13.222;2022-10-16T07:31:04;40.72;;;35.42;;
23378;SDS011;11862;46.070;13.222;2022-10-16T07:33:36;42.00;;;36.13;;
23378;SDS011;11862;46.070;13.222;2022-10-16T07:36:03;43.55;;;35.10;;
23378;SDS011;11862;46.070;13.222;2022-10-16T07:38:30;42.67;;;35.72;;
23378;SDS011;11862;46.070;13.222;2022-10-16T07:41:00;39.65;;;34.47;;
23378;SDS011;11862;46.070;13.222;2022-10-16T07:43:30;38.95;;;32.03;;
23378;SDS011;11862;46.070;13.222;2022-10-16T07:45:57;41.35;;;33.58;;
23378;SDS011;11862;46.070;13.222;2022-10-16T07:48:33;40.30;;;35.13;;
23378;SDS011;11862;46.070;13.222;2022-10-16T07:51:00;41.72;;;36.10;;
23378;SDS011;11862;46.070;13.222;2022-10-16T07:53:27;43.80;;;36.75;;
23378;SDS011;11862;46.070;13.222;2022-10-16T07:56:04;42.25;;;36.70;;
23378;SDS011;11862;46.070;13.222;2022-10-16T07:58:31;45.15;;;37.20;;
23378;SDS011;11862;46.070;13.222;2022-10-16T08:01:05;44.38;;;37.20;;
23378;SDS011;11862;46.070;13.222;2022-10-16T08:03:33;46.80;;;38.10;;
23378;SDS011;11862;46.070;13.222;2022-10-16T08:05:59;45.13;;;36.83;;
23378;SDS011;11862;46.070;13.222;2022-10-16T08:08:26;45.65;;;37.17;;
23378;SDS011;11862;46.070;13.222;2022-10-16T08:10:53;46.60;;;38.97;;
23378;SDS011;11862;46.070;13.222;2022-10-16T08:13:25;48.08;;;38.17;;
23378;SDS011;11862;46.070;13.222;2022-10-16T08:15:51;49.05;;;39.63;;
23378;SDS011;11862;46.070;13.222;2022-10-16T08:18:19;48.50;;;39.65;;
23378;SDS011;11862;46.070;13.222;2022-10-16T08:20:45;48.70;;;37.47;;
23378;SDS011;11862;46.070;13.222;2022-10-16T08:23:11;45.30;;;37.53;;
23378;SDS011;11862;46.070;13.222;2022-10-16T08:25:38;49.08;;;38.25;;
23378;SDS011;11862;46.070;13.222;2022-10-16T08:28:08;45.78;;;36.38;;
23378;SDS011;11862;46.070;13.222;2022-10-16T08:30:35;40.05;;;34.25;;
23378;SDS011;11862;46.070;13.222;2022-10-16T08:33:01;39.75;;;34.25;;
23378;SDS011;11862;46.070;13.222;2022-10-16T08:35:27;40.10;;;35.65;;
23378;SDS011;11862;46.070;13.222;2022-10-16T08:37:53;36.53;;;32.53;;
23378;SDS011;11862;46.070;13.222;2022-10-16T08:40:24;43.65;;;35.85;;
23378;SDS011;11862;46.070;13.222;2022-10-16T08:46:04;41.53;;;35.10;;
23378;SDS011;11862;46.070;13.222;2022-10-16T08:48:52;40.03;;;34.40;;
23378;SDS011;11862;46.070;13.222;2022-10-16T08:51:26;43.33;;;36.15;;
23378;SDS011;11862;46.070;13.222;2022-10-16T08:54:04;41.53;;;35.35;;
23378;SDS011;11862;46.070;13.222;2022-10-16T08:56:50;39.67;;;34.38;;
23378;SDS011;11862;46.070;13.222;2022-10-16T08:59:19;37.97;;;33.83;;
23378;SDS011;11862;46.070;13.222;2022-10-16T09:01:49;38.63;;;34.30;;
23378;SDS011;11862;46.070;13.222;2022-10-16T09:06:46;41.25;;;33.95;;
23378;SDS011;11862;46.070;13.222;2022-10-16T09:09:59;44.38;;;34.97;;
23378;SDS011;11862;46.070;13.222;2022-10-16T09:20:06;39.47;;;35.03;;
23378;SDS011;11862;46.070;13.222;2022-10-16T09:23:00;38.80;;;34.58;;
23378;SDS011;11862;46.070;13.222;2022-10-16T09:25:38;43.63;;;34.38;;
23378;SDS011;11862;46.070;13.222;2022-10-16T09:28:07;41.78;;;36.13;;
23378;SDS011;11862;46.070;13.222;2022-10-16T09:30:35;41.20;;;34.53;;
23378;SDS011;11862;46.070;13.222;2022-10-16T09:33:02;40.53;;;34.10;;
23378;SDS011;11862;46.070;13.222;2022-10-16T09:35:37;42.13;;;36.15;;
23378;SDS011;11862;46.070;13.222;2022-10-16T09:38:28;42.08;;;34.92;;
23378;SDS011;11862;46.070;13.222;2022-10-16T09:40:58;42.58;;;35.67;;
23378;SDS011;11862;46.070;13.222;2022-10-16T09:43:42;43.35;;;36.63;;
23378;SDS011;11862;46.070;13.222;2022-10-16T09:48:50;45.33;;;36.95;;
23378;SDS011;11862;46.070;13.222;2022-10-16T09:51:20;42.45;;;37.58;;
23378;SDS011;11862;46.070;13.222;2022-10-16T09:56:38;45.28;;;36.60;;
23378;SDS011;11862;46.070;13.222;2022-10-16T09:59:10;47.05;;;36.58;;
23378;SDS011;11862;46.070;13.222;2022-10-16T10:01:45;41.28;;;36.33;;
23378;SDS011;11862;46.070;13.222;2022-10-16T10:04:13;45.78;;;38.70;;
23378;SDS011;11862;46.070;13.222;2022-10-16T10:06:49;41.63;;;36.50;;
23378;SDS011;11862;46.070;13.222;2022-10-16T10:09:21;43.28;;;37.25;;
23378;SDS011;11862;46.070;13.222;2022-10-16T10:11:53;44.72;;;38.13;;
23378;SDS011;11862;46.070;13.222;2022-10-16T10:14:22;44.22;;;37.28;;
23378;SDS011;11862;46.070;13.222;2022-10-16T10:22:31;46.53;;;38.80;;
23378;SDS011;11862;46.070;13.222;2022-10-16T10:25:15;47.90;;;39.80;;
23378;SDS011;11862;46.070;13.222;2022-10-16T10:28:14;49.40;;;39.58;;
23378;SDS011;11862;46.070;13.222;2022-10-16T10:36:37;49.97;;;39.75;;
23378;SDS011;11862;46.070;13.222;2022-10-16T10:39:18;49.22;;;39.70;;
23378;SDS011;11862;46.070;13.222;2022-10-16T10:44:37;49.08;;;38.90;;
23378;SDS011;11862;46.070;13.222;2022-10-16T10:50:26;46.33;;;39.40;;
23378;SDS011;11862;46.070;13.222;2022-10-16T10:53:21;51.65;;;40.78;;
23378;SDS011;11862;46.070;13.222;2022-10-16T11:07:25;52.05;;;41.28;;
23378;SDS011;11862;46.070;13.222;2022-10-16T11:09:59;47.72;;;38.25;;
23378;SDS011;11862;46.070;13.222;2022-10-16T11:12:38;48.15;;;38.42;;
23378;SDS011;11862;46.070;13.222;2022-10-16T11:15:24;52.70;;;40.72;;
23378;SDS011;11862;46.070;13.222;2022-10-16T11:18:16;52.28;;;39.28;;
23378;SDS011;11862;46.070;13.222;2022-10-16T11:20:57;52.00;;;40.85;;
23378;SDS011;11862;46.070;13.222;2022-10-16T11:26:02;51.20;;;38.60;;
23378;SDS011;11862;46.070;13.222;2022-10-16T11:28:46;54.60;;;41.33;;
23378;SDS011;11862;46.070;13.222;2022-10-16T11:34:31;56.95;;;41.30;;
23378;SDS011;11862;46.070;13.222;2022-10-16T11:39:30;53.35;;;40.25;;
23378;SDS011;11862;46.070;13.222;2022-10-16T11:45:00;53.75;;;40.47;;
23378;SDS011;11862;46.070;13.222;2022-10-16T11:48:30;58.08;;;41.85;;
23378;SDS011;11862;46.070;13.222;2022-10-16T11:53:24;57.83;;;43.70;;
23378;SDS011;11862;46.070;13.222;2022-10-16T11:56:11;56.40;;;43.20;;
23378;SDS011;11862;46.070;13.222;2022-10-16T12:06:44;52.75;;;39.63;;
23378;SDS011;11862;46.070;13.222;2022-10-16T12:09:27;53.45;;;41.47;;
23378;SDS011;11862;46.070;13.222;2022-10-16T12:11:57;60.78;;;41.92;;
23378;SDS011;11862;46.070;13.222;2022-10-16T12:19:59;54.50;;;42.90;;
23378;SDS011;11862;46.070;13.222;2022-10-16T12:22:54;58.72;;;41.38;;
23378;SDS011;11862;46.070;13.222;2022-10-16T12:25:33;55.08;;;42.25;;
23378;SDS011;11862;46.070;13.222;2022-10-16T12:30:54;53.75;;;39.65;;
23378;SDS011;11862;46.070;13.222;2022-10-16T12:33:26;50.72;;;39.00;;
23378;SDS011;11862;46.070;13.222;2022-10-16T12:35:55;56.08;;;42.17;;
23378;SDS011;11862;46.070;13.222;2022-10-16T12:38:26;54.28;;;40.83;;
23378;SDS011;11862;46.070;13.222;2022-10-16T12:41:03;48.00;;;37.95;;
23378;SDS011;11862;46.070;13.222;2022-10-16T12:43:44;50.95;;;40.47;;
23378;SDS011;11862;46.070;13.222;2022-10-16T12:48:41;51.33;;;39.25;;
23378;SDS011;11862;46.070;13.222;2022-10-16T12:51:10;53.72;;;41.75;;
23378;SDS011;11862;46.070;13.222;2022-10-16T12:53:36;49.33;;;39.20;;
23378;SDS011;11862;46.070;13.222;2022-10-16T13:01:27;55.38;;;41.47;;
23378;SDS011;11862;46.070;13.222;2022-10-16T13:06:38;49.05;;;38.33;;
23378;SDS011;11862;46.070;13.222;2022-10-16T13:09:17;51.92;;;39.75;;
23378;SDS011;11862;46.070;13.222;2022-10-16T13:19:41;60.42;;;42.28;;
23378;SDS011;11862;46.070;13.222;2022-10-16T13:22:37;52.28;;;41.20;;
23378;SDS011;11862;46.070;13.222;2022-10-16T13:28:22;56.50;;;42.37;;
23378;SDS011;11862;46.070;13.222;2022-10-16T13:30:56;53.10;;;40.75;;
23378;SDS011;11862;46.070;13.222;2022-10-16T13:33:39;51.38;;;39.95;;
23378;SDS011;11862;46.070;13.222;2022-10-16T13:36:18;52.45;;;42.25;;
23378;SDS011;11862;46.070;13.222;2022-10-16T13:38:48;48.90;;;38.28;;
23378;SDS011;11862;46.070;13.222;2022-10-16T13:41:15;52.65;;;40.72;;
23378;SDS011;11862;46.070;13.222;2022-10-16T13:43:47;48.78;;;40.13;;
23378;SDS011;11862;46.070;13.222;2022-10-16T13:46:21;56.08;;;41.40;;
23378;SDS011;11862;46.070;13.222;2022-10-16T13:48:58;46.08;;;38.10;;
23378;SDS011;11862;46.070;13.222;2022-10-16T13:51:29;49.80;;;39.15;;
23378;SDS011;11862;46.070;13.222;2022-10-16T13:53:57;50.67;;;39.72;;
23378;SDS011;11862;46.070;13.222;2022-10-16T13:56:30;53.08;;;39.47;;
23378;SDS011;11862;46.070;13.222;2022-10-16T13:59:04;49.80;;;39.33;;
23378;SDS011;11862;46.070;13.222;2022-10-16T14:01:49;49.85;;;38.90;;
23378;SDS011;11862;46.070;13.222;2022-10-16T14:04:19;45.25;;;37.25;;
23378;SDS011;11862;46.070;13.222;2022-10-16T14:06:46;51.10;;;39.63;;
23378;SDS011;11862;46.070;13.222;2022-10-16T14:09:22;52.58;;;39.10;;
23378;SDS011;11862;46.070;13.222;2022-10-16T14:12:10;46.55;;;36.60;;
23378;SDS011;11862;46.070;13.222;2022-10-16T14:14:41;50.72;;;39.03;;
23378;SDS011;11862;46.070;13.222;2022-10-16T14:17:15;41.50;;;35.20;;
23378;SDS011;11862;46.070;13.222;2022-10-16T14:19:50;50.60;;;38.45;;
23378;SDS011;11862;46.070;13.222;2022-10-16T14:22:27;46.67;;;37.92;;
23378;SDS011;11862;46.070;13.222;2022-10-16T14:24:54;49.78;;;39.95;;
23378;SDS011;11862;46.070;13.222;2022-10-16T14:27:26;49.17;;;38.22;;
23378;SDS011;11862;46.070;13.222;2022-10-16T14:30:18;49.78;;;40.42;;
23378;SDS011;11862;46.070;13.222;2022-10-16T14:32:57;50.00;;;38.65;;
23378;SDS011;11862;46.070;13.222;2022-10-16T14:35:43;49.88;;;38.38;;
23378;SDS011;11862;46.070;13.222;2022-10-16T14:38:18;50.70;;;38.65;;
23378;SDS011;11862;46.070;13.222;2022-10-16T14:40:48;51.08;;;38.45;;
23378;SDS011;11862;46.070;13.222;2022-10-16T14:43:49;49.67;;;37.20;;
23378;SDS011;11862;46.070;13.222;2022-10-16T14:46:15;46.17;;;36.13;;
23378;SDS011;11862;46.070;13.222;2022-10-16T14:48:43;49.78;;;40.67;;
23378;SDS011;11862;46.070;13.222;2022-10-16T14:51:15;48.08;;;39.60;;
23378;SDS011;11862;46.070;13.222;2022-10-16T14:53:42;51.28;;;41.22;;
23378;SDS011;11862;46.070;13.222;2022-10-16T14:56:09;55.28;;;40.15;;
23378;SDS011;11862;46.070;13.222;2022-10-16T14:58:50;49.72;;;38.70;;
23378;SDS011;11862;46.070;13.222;2022-10-16T15:01:17;50.38;;;41.28;;
23378;SDS011;11862;46.070;13.222;2022-10-16T15:03:44;49.58;;;39.88;;
23378;SDS011;11862;46.070;13.222;2022-10-16T15:06:13;47.22;;;38.42;;
23378;SDS011;11862;46.070;13.222;2022-10-16T15:08:41;50.47;;;39.97;;
23378;SDS011;11862;46.070;13.222;2022-10-16T15:11:10;47.78;;;38.35;;
23378;SDS011;11862;46.070;13.222;2022-10-16T15:13:39;50.58;;;39.92;;
23378;SDS011;11862;46.070;13.222;2022-10-16T15:16:07;50.85;;;38.88;;
23378;SDS011;11862;46.070;13.222;2022-10-16T15:18:36;54.15;;;42.47;;
23378;SDS011;11862;46.070;13.222;2022-10-16T15:21:02;49.90;;;40.28;;
23378;SDS011;11862;46.070;13.222;2022-10-16T15:23:31;52.00;;;40.50;;
23378;SDS011;11862;46.070;13.222;2022-10-16T15:25:57;51.22;;;40.72;;
23378;SDS011;11862;46.070;13.222;2022-10-16T15:28:23;52.50;;;40.45;;
23378;SDS011;11862;46.070;13.222;2022-10-16T15:30:54;55.10;;;41.53;;
23378;SDS011;11862;46.070;13.222;2022-10-16T15:33:22;48.97;;;39.33;;
23378;SDS011;11862;46.070;13.222;2022-10-16T15:35:52;46.03;;;37.03;;
23378;SDS011;11862;46.070;13.222;2022-10-16T15:38:19;47.17;;;36.65;;
23378;SDS011;11862;46.070;13.222;2022-10-16T15:40:50;48.72;;;38.83;;
23378;SDS011;11862;46.070;13.222;2022-10-16T15:43:16;43.72;;;34.75;;
23378;SDS011;11862;46.070;13.222;2022-10-16T15:45:43;44.30;;;36.58;;
23378;SDS011;11862;46.070;13.222;2022-10-16T15:48:10;49.40;;;38.30;;
23378;SDS011;11862;46.070;13.222;2022-10-16T15:50:38;45.47;;;37.63;;
23378;SDS011;11862;46.070;13.222;2022-10-16T15:53:05;48.88;;;38.42;;
23378;SDS011;11862;46.070;13.222;2022-10-16T15:55:31;46.30;;;38.45;;
23378;SDS011;11862;46.070;13.222;2022-10-16T15:57:58;49.65;;;40.67;;
23378;SDS011;11862;46.070;13.222;2022-10-16T16:00:24;53.10;;;40.50;;
23378;SDS011;11862;46.070;13.222;2022-10-16T16:02:53;53.83;;;40.10;;
23378;SDS011;11862;46.070;13.222;2022-10-16T16:05:20;53.10;;;39.90;;
23378;SDS011;11862;46.070;13.222;2022-10-16T16:07:47;50.95;;;40.97;;
23378;SDS011;11862;46.070;13.222;2022-10-16T16:10:14;51.05;;;40.60;;
23378;SDS011;11862;46.070;13.222;2022-10-16T16:12:40;59.95;;;43.60;;
23378;SDS011;11862;46.070;13.222;2022-10-16T16:15:07;57.83;;;43.35;;
23378;SDS011;11862;46.070;13.222;2022-10-16T16:17:34;53.33;;;41.15;;
23378;SDS011;11862;46.070;13.222;2022-10-16T16:20:01;52.80;;;42.63;;
23378;SDS011;11862;46.070;13.222;2022-10-16T16:22:29;51.45;;;41.58;;
23378;SDS011;11862;46.070;13.222;2022-10-16T16:24:55;53.30;;;42.35;;
23378;SDS011;11862;46.070;13.222;2022-10-16T16:27:21;52.90;;;42.95;;
23378;SDS011;11862;46.070;13.222;2022-10-16T16:29:49;57.55;;;44.55;;
23378;SDS011;11862;46.070;13.222;2022-10-16T16:32:15;55.78;;;43.88;;
23378;SDS011;11862;46.070;13.222;2022-10-16T16:34:47;55.47;;;42.47;;